Time;durP1;ratioP1;P1;durP2;ratioP2;P2;SDS_P1;SDS_P2;PMS_P1;PMS_P2;Temp;Humidity;BMP_temperature;BMP_pressure;BME280_temperature;BME280_humidity;BME280_pressure;Samples;Min_cycle;Max_cycle;Signal;HPM_P1;HPM_P2
2022/08/27 00:02:11;;;;;;;2.40;1.00;;;22.10;59.70;;;;;;4965343;28;20397;-49
2022/08/27 00:04:37;;;;;;;2.50;1.23;;;22.10;59.80;;;;;;4973853;28;20109;-48
2022/08/27 00:07:05;;;;;;;3.97;1.05;;;22.00;59.90;;;;;;4964000;28;20047;-49
2022/08/27 00:09:45;;;;;;;2.22;0.80;;;22.00;59.90;;;;;;4956181;28;20058;-52
2022/08/27 00:12:16;;;;;;;3.67;0.82;;;22.00;60.10;;;;;;4973055;28;20039;-50
2022/08/27 00:14:45;;;;;;;4.60;2.20;;;22.00;60.00;;;;;;4966897;28;20114;-49
2022/08/27 00:17:12;;;;;;;3.22;1.20;;;22.00;60.00;;;;;;4956245;28;20067;-54
2022/08/27 00:19:41;;;;;;;1.90;1.27;;;22.00;60.00;;;;;;4967275;28;20105;-51
2022/08/27 00:22:09;;;;;;;2.55;1.02;;;22.00;60.00;;;;;;4969668;28;20113;-50
2022/08/27 00:24:38;;;;;;;3.47;1.05;;;22.00;60.10;;;;;;4964980;28;20486;-51
2022/08/27 00:27:17;;;;;;;3.45;1.17;;;22.00;60.00;;;;;;4970353;28;20739;-54
2022/08/27 00:29:47;;;;;;;2.50;1.20;;;22.00;59.90;;;;;;4959296;28;20059;-50
2022/08/27 00:32:15;;;;;;;3.10;1.20;;;22.10;59.90;;;;;;4970143;28;20499;-54
2022/08/27 00:34:42;;;;;;;2.03;0.90;;;22.00;59.80;;;;;;4954128;28;20047;-51
2022/08/27 00:37:09;;;;;;;1.30;1.10;;;22.00;59.70;;;;;;4954681;28;20055;-52
2022/08/27 00:39:36;;;;;;;3.28;1.23;;;22.00;59.50;;;;;;4966108;28;20043;-50
2022/08/27 00:42:05;;;;;;;3.15;1.25;;;22.00;59.50;;;;;;4972601;28;20038;-50
2022/08/27 00:44:34;;;;;;;5.75;1.20;;;22.00;59.50;;;;;;4959791;28;20114;-50
2022/08/27 00:47:11;;;;;;;7.72;1.27;;;22.00;59.20;;;;;;4953447;29;20090;-53
2022/08/27 00:49:44;;;;;;;2.90;1.08;;;22.00;59.10;;;;;;4961723;28;20514;-52
2022/08/27 00:52:28;;;;;;;1.90;1.00;;;22.00;58.90;;;;;;4972761;28;20097;-48
2022/08/27 00:55:08;;;;;;;3.50;1.00;;;22.00;58.80;;;;;;4956030;28;20078;-51
2022/08/27 00:57:38;;;;;;;2.63;1.73;;;22.00;58.90;;;;;;4959084;28;20043;-54
2022/08/27 01:00:20;;;;;;;4.63;1.17;;;21.90;58.80;;;;;;4971803;28;20051;-51
2022/08/27 01:02:49;;;;;;;2.47;0.88;;;21.90;58.80;;;;;;4964639;28;20062;-50
2022/08/27 01:05:20;;;;;;;3.20;1.05;;;21.90;58.90;;;;;;4954565;28;20074;-54
2022/08/27 01:07:50;;;;;;;6.10;1.83;;;21.90;58.90;;;;;;4966901;28;20046;-53
2022/08/27 01:10:20;;;;;;;2.35;1.05;;;21.90;59.10;;;;;;4969548;28;20086;-53
2022/08/27 01:12:49;;;;;;;3.30;1.60;;;21.90;59.00;;;;;;4953906;28;20047;-52
2022/08/27 01:15:22;;;;;;;1.08;0.93;;;21.80;58.90;;;;;;4968648;28;20041;-50
2022/08/27 01:17:49;;;;;;;3.75;1.25;;;21.80;59.00;;;;;;4968848;28;20050;-50
2022/08/27 01:20:24;;;;;;;7.25;2.05;;;21.80;59.10;;;;;;4964635;28;20087;-53
2022/08/27 01:23:20;;;;;;;1.95;1.20;;;21.80;59.10;;;;;;4969743;28;20043;-49
2022/08/27 01:25:50;;;;;;;3.80;2.28;;;21.80;59.00;;;;;;4969514;28;20163;-50
2022/08/27 01:28:22;;;;;;;2.42;0.80;;;21.80;59.10;;;;;;4966001;28;20133;-53
2022/08/27 01:30:59;;;;;;;2.92;1.20;;;21.80;59.20;;;;;;4955678;28;20039;-50
2022/08/27 01:33:26;;;;;;;3.42;1.33;;;21.70;59.10;;;;;;4952204;28;20072;-50
2022/08/27 01:36:00;;;;;;;5.63;1.17;;;21.70;59.00;;;;;;4959597;28;20523;-54
2022/08/27 01:38:29;;;;;;;4.53;1.40;;;21.60;58.90;;;;;;4971850;28;20093;-50
2022/08/27 01:40:58;;;;;;;3.78;0.95;;;21.60;59.00;;;;;;4970782;28;20054;-53
2022/08/27 01:43:27;;;;;;;3.45;1.45;;;21.60;59.10;;;;;;4958661;28;20038;-52
2022/08/27 01:45:55;;;;;;;3.85;1.10;;;21.60;59.40;;;;;;4969087;28;20414;-52
2022/08/27 01:48:23;;;;;;;4.55;1.10;;;21.60;59.40;;;;;;4974827;28;20067;-52
2022/08/27 01:50:50;;;;;;;1.55;1.05;;;21.60;59.50;;;;;;4952879;28;20051;-50
2022/08/27 01:53:22;;;;;;;2.50;1.17;;;21.60;59.60;;;;;;4965649;28;20500;-49
2022/08/27 01:55:52;;;;;;;4.45;1.50;;;21.60;59.70;;;;;;4967961;28;20046;-51
2022/08/27 01:58:29;;;;;;;3.67;1.65;;;21.60;59.60;;;;;;4963036;28;20055;-51
2022/08/27 02:01:13;;;;;;;5.55;1.63;;;21.60;59.50;;;;;;4971138;28;20050;-50
2022/08/27 02:03:40;;;;;;;1.20;1.10;;;21.60;59.40;;;;;;4968816;28;20070;-51
2022/08/27 02:06:10;;;;;;;2.85;1.05;;;21.60;59.30;;;;;;4970132;28;20117;-50
2022/08/27 02:08:43;;;;;;;1.83;1.00;;;21.60;59.20;;;;;;4951747;29;20575;-54
2022/08/27 02:11:11;;;;;;;3.08;1.13;;;21.60;59.30;;;;;;4965134;28;20045;-51
2022/08/27 02:13:38;;;;;;;4.90;1.20;;;21.60;59.20;;;;;;4965835;28;20082;-50
2022/08/27 02:16:06;;;;;;;2.42;1.13;;;21.60;59.40;;;;;;4970284;28;20050;-49
2022/08/27 02:18:35;;;;;;;2.40;1.35;;;21.60;59.40;;;;;;4954804;28;20419;-50
2022/08/27 02:21:05;;;;;;;1.50;1.13;;;21.60;59.50;;;;;;4952453;28;20062;-51
2022/08/27 02:23:32;;;;;;;2.80;1.15;;;21.60;59.50;;;;;;4964673;28;20046;-51
2022/08/27 02:26:01;;;;;;;1.85;1.23;;;21.60;59.40;;;;;;4971365;28;20407;-51
2022/08/27 02:28:33;;;;;;;1.90;1.30;;;21.70;59.30;;;;;;4957222;28;20074;-50
2022/08/27 02:31:00;;;;;;;2.15;1.08;;;21.70;59.30;;;;;;4953182;28;20039;-50
2022/08/27 02:33:28;;;;;;;2.50;1.00;;;21.70;59.20;;;;;;4964289;28;20054;-53
2022/08/27 02:35:54;;;;;;;7.72;1.35;;;21.60;59.20;;;;;;4971502;28;20049;-53
2022/08/27 02:38:22;;;;;;;5.57;1.50;;;21.70;59.20;;;;;;4951982;29;20118;-50
2022/08/27 02:40:51;;;;;;;2.83;1.05;;;21.70;59.10;;;;;;4965916;28;20392;-50
2022/08/27 02:43:22;;;;;;;2.38;1.20;;;21.70;59.10;;;;;;4961425;28;20053;-50
2022/08/27 02:45:53;;;;;;;2.75;0.95;;;21.70;59.10;;;;;;4971526;28;20043;-50
2022/08/27 02:48:24;;;;;;;2.80;1.23;;;21.70;59.00;;;;;;4968439;28;20050;-50
2022/08/27 02:50:53;;;;;;;2.97;1.20;;;21.70;58.90;;;;;;4964355;28;20046;-50
2022/08/27 02:53:20;;;;;;;4.43;1.35;;;21.70;58.80;;;;;;4964829;28;20042;-53
2022/08/27 02:55:51;;;;;;;1.05;0.80;;;21.70;58.80;;;;;;4956180;28;20447;-50
2022/08/27 02:58:17;;;;;;;2.63;1.20;;;21.70;58.80;;;;;;4969629;23;20408;-46
2022/08/27 03:00:47;;;;;;;3.38;1.20;;;21.70;58.70;;;;;;4951867;28;20047;-50
2022/08/27 03:03:16;;;;;;;3.72;1.42;;;21.60;58.60;;;;;;4951801;28;20077;-50
2022/08/27 03:05:49;;;;;;;2.50;1.13;;;21.70;58.70;;;;;;4951434;28;20051;-47
2022/08/27 03:08:18;;;;;;;4.22;1.00;;;21.60;58.60;;;;;;4936297;28;20042;-45
2022/08/27 03:10:50;;;;;;;1.75;1.27;;;21.70;58.90;;;;;;4924038;29;20044;-47
2022/08/27 03:13:17;;;;;;;3.00;1.63;;;21.60;58.80;;;;;;4931329;29;20453;-47
2022/08/27 03:15:44;;;;;;;2.55;1.15;;;21.70;58.70;;;;;;4931909;29;20067;-48
2022/08/27 03:18:17;;;;;;;2.78;1.27;;;21.60;58.70;;;;;;4921364;29;20047;-49
2022/08/27 03:20:51;;;;;;;2.83;1.60;;;21.60;58.70;;;;;;4932543;29;20118;-48
2022/08/27 03:23:23;;;;;;;1.40;0.90;;;21.60;58.80;;;;;;4929856;29;20077;-49
2022/08/27 03:25:56;;;;;;;4.28;1.60;;;21.60;58.80;;;;;;4929267;29;20396;-47
2022/08/27 03:28:27;;;;;;;2.28;1.95;;;21.60;58.80;;;;;;4924426;29;20051;-48
2022/08/27 03:30:58;;;;;;;1.58;1.30;;;21.60;58.70;;;;;;4931933;29;20572;-44
2022/08/27 03:33:29;;;;;;;2.40;1.33;;;21.50;58.80;;;;;;4931484;29;20047;-47
2022/08/27 03:35:56;;;;;;;4.75;1.30;;;21.50;58.70;;;;;;4929040;29;20047;-50
2022/08/27 03:38:25;;;;;;;2.65;1.17;;;21.50;58.80;;;;;;4929577;29;20043;-48
2022/08/27 03:40:53;;;;;;;2.35;1.10;;;21.50;58.90;;;;;;4932141;29;20044;-47
2022/08/27 03:43:22;;;;;;;3.67;1.20;;;21.40;58.90;;;;;;4928654;29;20041;-46
2022/08/27 03:45:54;;;;;;;3.05;1.38;;;21.40;59.10;;;;;;4928358;29;20059;-47
2022/08/27 03:48:29;;;;;;;3.15;1.30;;;21.30;59.10;;;;;;4929446;29;20452;-46
2022/08/27 03:50:56;;;;;;;2.78;1.17;;;21.40;59.20;;;;;;4932247;29;20071;-48
2022/08/27 03:53:23;;;;;;;3.78;1.27;;;21.30;59.30;;;;;;4931963;29;20496;-47
2022/08/27 03:55:50;;;;;;;1.67;1.48;;;21.40;59.40;;;;;;4932432;29;20044;-47
2022/08/27 03:58:21;;;;;;;3.13;1.20;;;21.30;59.40;;;;;;4927803;29;20043;-47
2022/08/27 04:00:51;;;;;;;4.15;1.23;;;21.30;59.50;;;;;;4935872;29;20280;-50
2022/08/27 04:03:23;;;;;;;2.13;1.50;;;21.30;59.80;;;;;;4934858;29;20555;-49
2022/08/27 04:05:54;;;;;;;2.67;1.40;;;21.30;59.90;;;;;;4928949;29;20091;-48
2022/08/27 04:08:22;;;;;;;3.65;1.25;;;21.40;60.00;;;;;;4935241;29;20515;-49
2022/08/27 04:10:54;;;;;;;1.40;1.30;;;21.40;60.00;;;;;;4935894;29;20524;-51
2022/08/27 04:13:23;;;;;;;2.35;1.52;;;21.40;59.90;;;;;;4933054;29;20047;-48
2022/08/27 04:15:52;;;;;;;1.50;1.38;;;21.40;60.00;;;;;;4932591;29;20075;-49
2022/08/27 04:18:20;;;;;;;3.25;1.70;;;21.30;60.00;;;;;;4920103;29;20062;-47
2022/08/27 04:20:51;;;;;;;1.88;1.67;;;21.30;60.00;;;;;;4916277;29;20378;-47
2022/08/27 04:23:18;;;;;;;2.67;1.38;;;21.30;60.10;;;;;;4928573;29;20039;-46
2022/08/27 04:25:51;;;;;;;3.45;1.80;;;21.30;60.00;;;;;;4931232;29;20040;-46
2022/08/27 04:28:17;;;;;;;2.92;1.70;;;21.30;60.10;;;;;;4946052;29;20047;-47
2022/08/27 04:30:45;;;;;;;2.72;1.55;;;21.30;60.10;;;;;;4916965;29;20465;-45
2022/08/27 04:33:17;;;;;;;3.40;1.90;;;21.30;60.20;;;;;;4929048;29;20050;-46
2022/08/27 04:35:45;;;;;;;1.40;1.30;;;21.30;60.30;;;;;;4935347;29;20171;-49
2022/08/27 04:38:12;;;;;;;2.85;1.65;;;21.30;60.20;;;;;;4933038;29;20040;-50
2022/08/27 04:43:28;;;;;;;1.40;1.30;;;21.30;60.20;;;;;;4921862;29;20110;-50
2022/08/27 04:45:55;;;;;;;3.13;2.25;;;21.30;60.10;;;;;;4934519;29;20040;-51
2022/08/27 04:48:22;;;;;;;4.03;1.60;;;21.30;60.20;;;;;;4935216;29;20512;-50
2022/08/27 04:50:54;;;;;;;3.00;1.63;;;21.30;60.20;;;;;;4934172;29;20080;-51
2022/08/27 04:53:21;;;;;;;4.25;1.70;;;21.30;60.30;;;;;;4929127;29;20032;-51
2022/08/27 04:55:53;;;;;;;3.67;1.67;;;21.30;60.20;;;;;;4934511;29;20066;-48
2022/08/27 04:58:22;;;;;;;4.07;2.75;;;21.30;60.30;;;;;;4915039;29;20134;-47
2022/08/27 05:00:51;;;;;;;4.47;1.70;;;21.30;60.40;;;;;;4924547;29;20436;-48
2022/08/27 05:03:23;;;;;;;3.45;2.00;;;21.30;60.50;;;;;;4929436;29;20538;-49
2022/08/27 05:06:06;;;;;;;2.50;1.77;;;21.30;60.40;;;;;;4933924;29;20048;-48
2022/08/27 05:08:35;;;;;;;3.22;1.50;;;21.30;60.50;;;;;;4915365;29;20055;-49
2022/08/27 05:11:07;;;;;;;3.10;1.60;;;21.30;60.50;;;;;;4930135;29;20082;-52
2022/08/27 05:13:36;;;;;;;2.00;1.73;;;21.30;60.70;;;;;;4934020;29;20044;-48
2022/08/27 05:16:06;;;;;;;3.65;1.80;;;21.30;61.30;;;;;;4931501;29;20050;-48
2022/08/27 05:18:34;;;;;;;3.20;1.88;;;21.30;60.60;;;;;;4930085;29;20716;-47
2022/08/27 05:21:17;;;;;;;3.33;2.00;;;21.30;60.50;;;;;;4929784;29;20052;-48
2022/08/27 05:23:46;;;;;;;3.70;1.50;;;21.30;60.30;;;;;;4932979;29;20056;-49
2022/08/27 05:26:13;;;;;;;2.13;1.85;;;21.40;60.40;;;;;;4934149;29;20404;-51
2022/08/27 05:28:47;;;;;;;3.20;1.40;;;21.40;60.30;;;;;;4928870;29;20508;-50
2022/08/27 05:31:14;;;;;;;;;;;21.30;60.20;;;;;;4934173;29;20054;-48
2022/08/27 05:33:42;;;;;;;4.63;1.55;;;21.40;60.10;;;;;;4934054;29;19927;-50
2022/08/27 05:36:21;;;;;;;2.40;1.50;;;21.40;59.80;;;;;;4932847;29;20039;-47
2022/08/27 05:38:49;;;;;;;3.03;1.88;;;21.40;59.80;;;;;;4928154;29;20568;-50
2022/08/27 05:41:26;;;;;;;2.50;1.70;;;21.40;59.70;;;;;;4933751;29;20058;-48
2022/08/27 05:44:06;;;;;;;1.60;1.40;;;21.40;59.90;;;;;;4932428;29;20079;-49
2022/08/27 05:46:53;;;;;;;3.30;2.08;;;21.40;59.90;;;;;;4932030;29;20043;-51
2022/08/27 05:49:20;;;;;;;4.97;1.92;;;21.50;59.90;;;;;;4930289;29;20457;-51
2022/08/27 05:51:51;;;;;;;2.45;1.88;;;21.40;59.90;;;;;;4933858;29;20405;-50
2022/08/27 05:54:18;;;;;;;2.25;1.50;;;21.50;60.00;;;;;;4933694;29;20459;-47
2022/08/27 05:56:46;;;;;;;4.20;1.52;;;21.50;60.00;;;;;;4930943;29;20454;-48
2022/08/27 06:02:04;;;;;;;6.68;1.70;;;21.50;59.80;;;;;;4933049;29;20051;-51
2022/08/27 06:04:33;;;;;;;3.25;1.65;;;21.60;59.70;;;;;;4933475;29;20040;-48
2022/08/27 06:07:00;;;;;;;1.85;1.40;;;21.60;59.80;;;;;;4926566;29;20047;-51
2022/08/27 06:09:28;;;;;;;4.90;1.77;;;21.60;59.50;;;;;;4930722;29;20078;-48
2022/08/27 06:11:57;;;;;;;2.80;1.48;;;21.60;59.20;;;;;;4906075;29;20044;-46
2022/08/27 06:14:25;;;;;;;4.05;1.65;;;21.70;58.90;;;;;;4921703;29;20102;-47
2022/08/27 06:16:52;;;;;;;2.75;1.77;;;21.70;58.70;;;;;;4917284;29;20075;-50
2022/08/27 06:19:18;;;;;;;1.98;1.23;;;21.70;58.60;;;;;;4921145;29;20075;-51
2022/08/27 06:21:45;;;;;;;2.33;1.38;;;21.70;58.40;;;;;;4924569;29;20040;-52
2022/08/27 06:24:27;;;;;;;5.93;1.42;;;21.70;58.10;;;;;;4918550;29;20419;-52
2022/08/27 06:26:54;;;;;;;4.00;1.38;;;21.80;58.00;;;;;;4922597;29;20457;-49
2022/08/27 06:29:22;;;;;;;2.65;1.50;;;21.80;57.80;;;;;;4926552;29;20110;-52
2022/08/27 06:31:49;;;;;;;4.95;1.90;;;21.80;57.80;;;;;;4917324;29;20040;-52
2022/08/27 06:34:16;;;;;;;4.20;1.70;;;21.80;57.90;;;;;;4913041;29;20076;-51
2022/08/27 06:36:43;;;;;;;1.67;1.35;;;21.90;57.90;;;;;;4927550;29;20043;-51
2022/08/27 06:39:12;;;;;;;2.67;1.60;;;21.90;57.20;;;;;;4932198;29;20197;-51
2022/08/27 06:41:40;;;;;;;2.58;1.60;;;22.00;57.00;;;;;;4933020;29;20100;-49
2022/08/27 06:44:11;;;;;;;2.17;1.73;;;21.90;56.80;;;;;;4929794;29;20115;-52
2022/08/27 06:46:39;;;;;;;4.75;1.67;;;22.00;56.70;;;;;;4933586;29;20075;-51
2022/08/27 06:49:06;;;;;;;2.47;1.73;;;22.00;56.80;;;;;;4927509;29;20044;-52
2022/08/27 06:51:35;;;;;;;2.55;1.75;;;21.90;56.40;;;;;;4918896;29;20092;-47
2022/08/27 06:54:06;;;;;;;2.53;1.33;;;22.00;56.20;;;;;;4922406;29;20039;-52
2022/08/27 06:56:33;;;;;;;4.50;1.50;;;22.00;56.10;;;;;;4932878;29;20039;-52
2022/08/27 06:59:01;;;;;;;5.10;2.15;;;22.00;56.20;;;;;;4926356;29;20115;-52
2022/08/27 07:01:31;;;;;;;5.38;1.63;;;22.00;56.10;;;;;;4925233;29;20040;-46
2022/08/27 07:04:00;;;;;;;2.88;1.80;;;22.00;56.20;;;;;;4926720;29;20575;-49
2022/08/27 07:06:29;;;;;;;3.47;1.55;;;21.90;56.20;;;;;;4933496;29;20122;-47
2022/08/27 07:08:56;;;;;;;4.40;1.75;;;22.00;56.20;;;;;;4931584;29;20051;-52
2022/08/27 07:11:23;;;;;;;2.90;1.23;;;21.90;56.20;;;;;;4920561;29;20076;-49
2022/08/27 07:13:52;;;;;;;2.17;1.45;;;21.90;56.30;;;;;;4921421;29;20044;-48
2022/08/27 07:16:23;;;;;;;3.50;1.33;;;22.00;56.50;;;;;;4927500;29;20095;-48
2022/08/27 07:18:52;;;;;;;4.25;1.58;;;22.00;56.20;;;;;;4929669;29;20551;-51
2022/08/27 07:21:21;;;;;;;3.78;1.67;;;21.90;55.90;;;;;;4931354;29;20120;-48
2022/08/27 07:23:49;;;;;;;3.42;1.50;;;21.90;55.90;;;;;;4931833;29;20048;-47
2022/08/27 07:26:18;;;;;;;4.35;1.90;;;22.00;56.10;;;;;;4932394;29;20040;-50
2022/08/27 07:28:46;;;;;;;2.45;1.30;;;21.90;56.20;;;;;;4931782;29;20779;-51
2022/08/27 07:31:16;;;;;;;3.72;1.98;;;22.00;56.40;;;;;;4928426;29;20051;-52
2022/08/27 07:33:43;;;;;;;4.85;1.63;;;22.00;56.30;;;;;;4933090;29;20071;-48
2022/08/27 07:36:18;;;;;;;3.85;1.60;;;22.00;56.50;;;;;;4933511;29;20051;-47
2022/08/27 07:38:44;;;;;;;3.00;1.30;;;22.00;56.30;;;;;;4935720;29;20048;-50
2022/08/27 07:41:28;;;;;;;1.87;1.43;;;22.10;56.00;;;;;;4933562;29;20111;-46
2022/08/27 07:46:46;;;;;;;2.28;1.60;;;22.10;55.80;;;;;;4935688;29;20055;-51
2022/08/27 07:49:18;;;;;;;2.47;1.45;;;22.10;56.00;;;;;;4925791;29;20051;-51
2022/08/27 07:51:46;;;;;;;3.15;1.65;;;22.20;55.80;;;;;;4922090;29;20096;-47
2022/08/27 07:54:13;;;;;;;1.52;1.23;;;22.10;55.70;;;;;;4927334;29;20554;-52
2022/08/27 07:56:40;;;;;;;2.38;1.45;;;22.10;55.80;;;;;;4936305;29;20047;-52
2022/08/27 07:59:07;;;;;;;5.93;1.85;;;22.20;55.90;;;;;;4932198;29;20571;-52
2022/08/27 08:01:34;;;;;;;3.63;1.50;;;22.20;55.60;;;;;;4936170;29;20047;-49
2022/08/27 08:04:01;;;;;;;3.55;1.40;;;22.20;55.50;;;;;;4935703;29;20054;-52
2022/08/27 08:06:28;;;;;;;3.70;1.42;;;22.20;55.10;;;;;;4922219;29;20059;-51
2022/08/27 08:08:55;;;;;;;10.60;2.00;;;22.20;54.90;;;;;;4926419;29;20031;-51
2022/08/27 08:11:21;;;;;;;3.45;1.52;;;22.20;54.80;;;;;;4935953;29;20055;-52
2022/08/27 08:13:48;;;;;;;3.97;1.42;;;22.20;54.80;;;;;;4932952;29;20114;-52
2022/08/27 08:16:15;;;;;;;2.95;1.42;;;22.20;55.00;;;;;;4919409;29;20401;-50
2022/08/27 08:18:42;;;;;;;4.03;1.42;;;22.20;55.10;;;;;;4929360;29;20047;-51
2022/08/27 08:21:12;;;;;;;2.03;1.42;;;22.20;55.30;;;;;;4935691;29;20052;-51
2022/08/27 08:23:39;;;;;;;4.22;1.40;;;22.30;55.50;;;;;;4934391;29;20047;-49
2022/08/27 08:26:07;;;;;;;2.63;1.70;;;22.30;55.50;;;;;;4930443;29;20120;-49
2022/08/27 08:28:34;;;;;;;2.38;1.13;;;22.30;56.00;;;;;;4928152;29;20067;-52
2022/08/27 08:31:01;;;;;;;4.72;1.75;;;22.40;55.40;;;;;;4935535;29;20047;-52
2022/08/27 08:33:30;;;;;;;3.25;1.90;;;22.50;54.80;;;;;;4934810;29;20085;-52
2022/08/27 08:36:14;;;;;;;3.22;1.60;;;22.50;54.50;;;;;;4932556;29;20079;-52
2022/08/27 08:38:42;;;;;;;3.45;1.52;;;22.60;54.10;;;;;;4932784;29;20055;-48
2022/08/27 08:41:45;;;;;;;1.58;1.48;;;22.60;54.20;;;;;;4933898;29;20103;-52
2022/08/27 08:44:39;;;;;;;6.85;2.08;;;22.70;54.10;;;;;;4934566;29;20047;-51
2022/08/27 08:47:13;;;;;;;3.40;1.80;;;22.70;54.30;;;;;;4923600;29;20458;-52
2022/08/27 08:50:13;;;;;;;7.47;1.83;;;22.70;54.30;;;;;;4929050;29;20059;-51
2022/08/27 08:52:51;;;;;;;4.13;1.60;;;22.80;54.20;;;;;;4915685;29;20594;-52
2022/08/27 08:55:23;;;;;;;1.98;1.40;;;22.80;53.60;;;;;;4934330;29;20448;-49
2022/08/27 08:58:23;;;;;;;4.38;1.58;;;22.90;53.30;;;;;;4929849;29;20056;-48
2022/08/27 09:00:55;;;;;;;3.63;1.63;;;22.90;53.60;;;;;;4930667;29;20047;-50
2022/08/27 09:03:22;;;;;;;3.58;1.60;;;23.00;53.60;;;;;;4915815;29;20104;-49
2022/08/27 09:05:59;;;;;;;2.67;2.13;;;23.10;54.00;;;;;;4919947;29;20052;-49
2022/08/27 09:08:33;;;;;;;7.60;2.85;;;23.10;53.70;;;;;;4928741;29;20555;-52
2022/08/27 09:11:39;;;;;;;3.65;2.33;;;23.20;54.30;;;;;;4934544;29;20415;-47
2022/08/27 09:14:36;;;;;;;5.75;2.63;;;23.30;53.90;;;;;;4928945;29;20119;-49
2022/08/27 09:17:04;;;;;;;2.78;2.25;;;23.30;53.50;;;;;;4929416;29;20040;-52
2022/08/27 09:19:37;;;;;;;4.78;2.95;;;23.30;54.00;;;;;;4931213;29;20048;-51
2022/08/27 09:22:41;;;;;;;5.68;3.47;;;23.30;53.80;;;;;;4922218;29;20095;-50
2022/08/27 09:25:31;;;;;;;4.63;3.08;;;23.40;53.90;;;;;;4929794;29;20051;-48
2022/08/27 09:29:14;;;;;;;3.25;2.78;;;23.40;53.80;;;;;;4920603;29;20051;-49
2022/08/27 09:30:56;;;;;;;3.92;2.88;;;23.50;54.00;;;;;;4921778;29;20274;-48
2022/08/27 09:33:23;;;;;;;5.40;2.72;;;23.60;53.90;;;;;;4919963;29;20130;-52
2022/08/27 09:35:51;;;;;;;7.90;3.33;;;23.60;53.80;;;;;;4923924;29;20055;-48
2022/08/27 09:38:27;;;;;;;3.95;2.97;;;23.70;53.60;;;;;;4921305;29;20054;-47
2022/08/27 09:40:59;;;;;;;3.40;2.22;;;23.80;52.90;;;;;;4928544;29;20117;-49
2022/08/27 09:43:28;;;;;;;3.85;1.65;;;24.00;52.90;;;;;;4926347;29;20055;-52
2022/08/27 09:46:01;;;;;;;3.17;1.73;;;24.00;52.10;;;;;;4934041;29;20044;-52
2022/08/27 09:48:31;;;;;;;3.15;2.05;;;24.00;51.40;;;;;;4933739;29;20432;-52
2022/08/27 09:51:07;;;;;;;4.20;1.63;;;24.10;51.40;;;;;;4929821;29;22057;-52
2022/08/27 09:53:50;;;;;;;4.22;1.65;;;24.20;51.00;;;;;;4930851;29;20424;-50
2022/08/27 09:56:31;;;;;;;6.35;2.30;;;24.20;50.90;;;;;;4934245;29;20043;-49
2022/08/27 09:59:11;;;;;;;5.03;2.65;;;24.30;51.10;;;;;;4931417;29;20516;-52
2022/08/27 10:01:54;;;;;;;6.82;2.70;;;24.40;50.90;;;;;;4924675;29;20058;-52
2022/08/27 10:04:34;;;;;;;3.70;2.17;;;24.40;51.00;;;;;;4926550;29;20044;-51
2022/08/27 10:07:20;;;;;;;2.90;1.58;;;24.50;50.60;;;;;;4932904;29;20044;-52
2022/08/27 10:10:06;;;;;;;3.38;1.73;;;24.50;50.30;;;;;;4933497;29;20095;-52
2022/08/27 10:12:45;;;;;;;3.63;1.75;;;24.60;49.60;;;;;;4929512;29;20094;-50
2022/08/27 10:15:13;;;;;;;4.75;1.80;;;24.70;49.50;;;;;;4933594;29;20103;-52
2022/08/27 10:18:01;;;;;;;1.45;1.27;;;24.70;49.40;;;;;;4919088;29;20405;-53
2022/08/27 10:20:59;;;;;;;3.72;1.77;;;24.80;48.90;;;;;;4924585;29;20803;-55
2022/08/27 10:23:51;;;;;;;8.18;2.17;;;24.80;48.60;;;;;;4930678;29;20074;-55
2022/08/27 10:26:27;;;;;;;1.60;1.10;;;24.90;48.60;;;;;;4931675;29;20043;-55
2022/08/27 10:29:21;;;;;;;2.88;1.85;;;24.90;48.40;;;;;;4926512;29;20096;-54
2022/08/27 10:32:02;;;;;;;2.47;1.65;;;24.90;48.10;;;;;;4928121;29;20039;-54
2022/08/27 10:34:35;;;;;;;6.05;1.73;;;25.00;48.20;;;;;;4932459;29;20067;-55
2022/08/27 10:37:29;;;;;;;2.40;1.40;;;25.10;48.30;;;;;;4932549;29;20043;-50
2022/08/27 10:40:38;;;;;;;3.15;1.60;;;25.20;47.90;;;;;;4906753;29;20055;-52
2022/08/27 10:43:41;;;;;;;6.13;1.45;;;25.20;47.10;;;;;;4925163;29;20059;-54
2022/08/27 10:46:20;;;;;;;;;;;25.30;47.70;;;;;;4931313;29;20501;-54
2022/08/27 10:49:30;;;;;;;2.08;1.30;;;25.40;49.00;;;;;;4931902;29;20009;-55
2022/08/27 10:52:08;;;;;;;2.45;1.60;;;25.40;48.20;;;;;;4923159;29;20036;-54
2022/08/27 10:54:45;;;;;;;2.47;1.58;;;25.60;47.70;;;;;;4929315;29;20044;-55
2022/08/27 10:57:31;;;;;;;3.20;1.50;;;25.60;46.90;;;;;;4930688;29;20047;-54
2022/08/27 11:00:21;;;;;;;1.55;1.10;;;25.70;46.50;;;;;;4920225;29;20044;-54
2022/08/27 11:03:05;;;;;;;3.65;1.83;;;25.80;46.40;;;;;;4922013;29;20104;-54
2022/08/27 11:05:42;;;;;;;1.88;1.13;;;25.80;46.10;;;;;;4927771;29;20044;-55
2022/08/27 11:08:19;;;;;;;2.45;1.40;;;25.80;45.90;;;;;;4930656;29;20119;-55
2022/08/27 11:11:00;;;;;;;2.13;0.98;;;25.90;45.90;;;;;;4927408;29;20110;-51
2022/08/27 11:13:50;;;;;;;3.17;1.27;;;25.90;45.30;;;;;;4928721;29;20119;-53
2022/08/27 11:16:31;;;;;;;2.50;1.00;;;25.90;45.20;;;;;;4922244;29;20055;-52
2022/08/27 11:19:18;;;;;;;3.97;1.23;;;26.00;44.70;;;;;;4930338;29;20044;-54
2022/08/27 11:21:46;;;;;;;4.80;1.65;;;25.90;45.00;;;;;;4928549;29;20058;-55
2022/08/27 11:24:30;;;;;;;2.70;1.67;;;25.90;45.10;;;;;;4921672;29;20454;-54
2022/08/27 11:27:05;;;;;;;3.60;1.50;;;25.90;45.40;;;;;;4920740;29;20031;-54
2022/08/27 11:29:40;;;;;;;2.97;0.98;;;25.90;45.20;;;;;;4922182;29;20048;-55
2022/08/27 11:32:41;;;;;;;1.90;1.30;;;25.90;44.90;;;;;;4923995;29;20064;-54
2022/08/27 11:35:17;;;;;;;1.52;0.90;;;26.00;45.50;;;;;;4923193;29;20290;-54
2022/08/27 11:38:04;;;;;;;1.40;0.90;;;26.00;44.90;;;;;;4925423;29;20253;-51
2022/08/27 11:40:52;;;;;;;2.92;1.15;;;26.10;45.30;;;;;;4923391;29;20052;-55
2022/08/27 11:43:23;;;;;;;2.35;1.40;;;26.20;45.30;;;;;;4927817;29;20095;-55
2022/08/27 11:45:57;;;;;;;2.63;1.08;;;26.30;44.70;;;;;;4925630;29;20086;-50
2022/08/27 11:48:30;;;;;;;3.55;1.40;;;26.30;44.50;;;;;;4929863;29;20043;-54
2022/08/27 11:51:01;;;;;;;1.63;1.25;;;26.40;44.00;;;;;;4926689;29;20094;-55
2022/08/27 11:53:40;;;;;;;2.20;1.27;;;26.30;43.90;;;;;;4934808;29;20047;-55
2022/08/27 11:56:33;;;;;;;2.38;1.17;;;26.40;43.80;;;;;;4934947;29;20071;-50
2022/08/27 11:59:25;;;;;;;5.70;1.70;;;26.30;43.80;;;;;;4927215;29;20193;-55
2022/08/27 12:01:55;;;;;;;2.22;1.65;;;26.30;43.90;;;;;;4916711;29;20055;-55
2022/08/27 12:04:35;;;;;;;2.97;1.42;;;26.20;44.20;;;;;;4921398;29;20517;-55
2022/08/27 12:07:21;;;;;;;2.20;1.05;;;26.20;44.40;;;;;;4923879;29;20051;-54
2022/08/27 12:09:54;;;;;;;1.95;1.50;;;26.20;44.60;;;;;;4932617;29;20113;-54
2022/08/27 12:12:29;;;;;;;3.22;1.42;;;26.20;44.20;;;;;;4919497;29;20043;-55
2022/08/27 12:15:27;;;;;;;3.58;1.55;;;26.30;44.40;;;;;;4931487;29;20044;-55
2022/08/27 12:18:24;;;;;;;2.08;1.35;;;26.30;44.40;;;;;;4929987;29;20412;-54
2022/08/27 12:21:05;;;;;;;2.33;1.95;;;26.30;44.00;;;;;;4931016;29;20039;-54
2022/08/27 12:23:50;;;;;;;1.63;1.20;;;26.30;44.40;;;;;;4934581;29;20048;-54
2022/08/27 12:26:57;;;;;;;4.25;1.50;;;26.30;44.40;;;;;;4934159;29;20040;-55
2022/08/27 12:29:49;;;;;;;3.38;1.42;;;26.40;44.90;;;;;;4911274;29;20051;-55
2022/08/27 12:32:26;;;;;;;3.53;1.80;;;26.50;44.60;;;;;;4923564;29;20058;-52
2022/08/27 12:35:15;;;;;;;3.63;1.92;;;26.60;44.50;;;;;;4933844;29;20093;-55
2022/08/27 12:37:52;;;;;;;2.70;1.75;;;26.60;44.60;;;;;;4930723;29;20054;-54
2022/08/27 12:40:26;;;;;;;4.05;1.90;;;26.70;44.70;;;;;;4932976;29;20043;-55
2022/08/27 12:43:22;;;;;;;2.45;1.63;;;26.80;44.70;;;;;;4933862;29;20556;-55
2022/08/27 12:45:59;;;;;;;2.67;1.58;;;26.80;43.90;;;;;;4930517;29;20441;-55
2022/08/27 12:48:35;;;;;;;3.25;1.55;;;26.90;43.90;;;;;;4927313;29;20052;-54
2022/08/27 12:51:20;;;;;;;3.20;1.55;;;26.90;43.70;;;;;;4928330;29;20043;-52
2022/08/27 12:54:37;;;;;;;5.60;1.50;;;26.90;43.80;;;;;;4922963;29;20098;-53
2022/08/27 12:57:28;;;;;;;1.65;1.42;;;27.00;44.00;;;;;;4909773;29;20501;-56
2022/08/27 13:00:11;;;;;;;4.27;1.20;;;27.00;43.70;;;;;;4924122;29;20084;-55
2022/08/27 13:02:57;;;;;;;1.83;1.45;;;27.00;44.00;;;;;;4929201;29;20575;-56
2022/08/27 13:05:25;;;;;;;3.95;1.38;;;27.00;43.40;;;;;;4923532;29;20505;-51
2022/08/27 13:07:53;;;;;;;3.97;1.48;;;27.10;43.90;;;;;;4927643;29;20906;-52
2022/08/27 13:10:28;;;;;;;3.05;1.30;;;27.10;43.50;;;;;;4928923;29;20068;-53
2022/08/27 13:13:06;;;;;;;3.35;1.48;;;27.20;43.00;;;;;;4931767;29;20039;-55
2022/08/27 13:15:33;;;;;;;1.63;1.38;;;27.20;42.80;;;;;;4933389;29;20043;-53
2022/08/27 13:18:03;;;;;;;3.53;1.38;;;27.20;43.30;;;;;;4920659;29;20096;-55
2022/08/27 13:20:31;;;;;;;3.40;1.60;;;27.20;43.00;;;;;;4921065;29;20063;-52
2022/08/27 13:22:58;;;;;;;1.65;0.90;;;27.20;43.20;;;;;;4928642;29;20445;-51
2022/08/27 13:25:28;;;;;;;3.05;1.60;;;27.20;43.30;;;;;;4914214;29;20056;-52
2022/08/27 13:28:10;;;;;;;3.65;1.50;;;27.20;43.00;;;;;;4922676;29;20062;-55
2022/08/27 13:30:41;;;;;;;4.03;2.07;;;27.20;43.20;;;;;;4927208;29;20048;-52
2022/08/27 13:33:15;;;;;;;2.45;1.50;;;27.20;43.00;;;;;;4933553;29;20115;-52